createdAt,value
2023-03-26T00:01:32.235Z,4.63
2023-03-26T00:03:58.938Z,5.15
2023-03-26T00:06:27.395Z,5.22
2023-03-26T00:08:54.799Z,4.00
2023-03-26T00:11:22.110Z,5.28
2023-03-26T00:13:48.785Z,5.60
2023-03-26T00:16:17.064Z,4.78
2023-03-26T00:18:44.233Z,4.80
2023-03-26T00:21:13.452Z,4.90
2023-03-26T00:23:40.155Z,6.30
2023-03-26T00:26:06.916Z,4.90
2023-03-26T00:28:33.526Z,4.72
2023-03-26T00:31:02.509Z,4.88
2023-03-26T00:33:29.441Z,5.40
2023-03-26T00:35:57.308Z,4.75
2023-03-26T00:38:24.440Z,5.63
2023-03-26T00:40:51.602Z,5.10
2023-03-26T00:43:18.962Z,4.43
2023-03-26T00:45:49.800Z,4.38
2023-03-26T00:48:16.603Z,3.53
2023-03-26T00:50:44.387Z,5.07
2023-03-26T00:53:11.366Z,5.80
2023-03-26T00:55:38.345Z,4.03
2023-03-26T00:58:04.976Z,4.35
2023-03-26T01:03:24.803Z,4.43
2023-03-26T01:06:11.353Z,4.85
2023-03-26T01:08:43.115Z,3.58
2023-03-26T01:11:21.564Z,4.93
2023-03-26T01:13:50.892Z,4.90
2023-03-26T01:16:41.324Z,4.25
2023-03-26T01:19:11.829Z,5.28
2023-03-26T01:21:38.619Z,4.97
2023-03-26T01:24:09.246Z,4.95
2023-03-26T01:26:54.435Z,4.30
2023-03-26T01:29:44.218Z,5.60
2023-03-26T01:32:29.711Z,5.25
2023-03-26T01:35:24.337Z,5.70
2023-03-26T01:38:09.743Z,5.70
2023-03-26T01:40:36.765Z,5.47
2023-03-26T01:43:09.175Z,5.40
2023-03-26T01:45:38.156Z,5.70
2023-03-26T01:48:06.320Z,5.50
2023-03-26T01:50:33.038Z,5.45
2023-03-26T01:52:59.827Z,5.22
2023-03-26T01:55:31.918Z,5.97
2023-03-26T01:58:24.008Z,6.05
2023-03-26T02:00:59.345Z,4.97
2023-03-26T02:03:30.368Z,6.63
2023-03-26T02:06:05.589Z,5.78
2023-03-26T02:08:43.914Z,4.68
2023-03-26T02:11:12.955Z,5.78
2023-03-26T02:13:41.444Z,4.35
2023-03-26T02:16:09.798Z,4.63
2023-03-26T02:18:36.595Z,3.75
2023-03-26T02:21:07.368Z,6.60
2023-03-26T02:23:34.099Z,4.05
2023-03-26T02:26:00.799Z,4.03
2023-03-26T02:28:27.410Z,4.47
2023-03-26T02:30:54.029Z,3.78
2023-03-26T02:33:20.652Z,5.32
2023-03-26T02:35:47.413Z,4.57
2023-03-26T02:38:14.201Z,4.60
2023-03-26T02:40:41.449Z,4.82
2023-03-26T02:43:08.260Z,4.32
2023-03-26T02:45:35.065Z,5.05
2023-03-26T02:48:01.840Z,3.35
2023-03-26T02:50:28.505Z,4.78
2023-03-26T02:52:55.682Z,3.65
2023-03-26T02:55:22.362Z,4.80
2023-03-26T02:57:49.019Z,4.05
2023-03-26T03:00:15.853Z,3.92
2023-03-26T03:02:42.563Z,4.82
2023-03-26T03:05:09.443Z,4.47
2023-03-26T03:07:36.078Z,5.18
2023-03-26T03:10:02.769Z,3.92
2023-03-26T03:12:29.612Z,4.55
2023-03-26T03:14:56.277Z,3.70
2023-03-26T03:17:23.006Z,4.05
2023-03-26T03:19:49.690Z,2.88
2023-03-26T03:22:16.413Z,2.45
2023-03-26T03:24:43.061Z,2.65
2023-03-26T03:27:09.951Z,2.70
2023-03-26T03:29:36.592Z,3.15
2023-03-26T03:32:03.375Z,2.60
2023-03-26T03:34:30.062Z,3.92
2023-03-26T03:36:56.713Z,2.45
2023-03-26T03:39:23.457Z,2.40
2023-03-26T03:41:50.141Z,2.70
2023-03-26T03:44:16.852Z,2.78
2023-03-26T03:46:43.515Z,3.15
2023-03-26T03:49:10.223Z,3.38
2023-03-26T03:51:36.917Z,3.70
2023-03-26T03:54:03.662Z,2.65
2023-03-26T03:56:30.397Z,2.30
2023-03-26T03:58:57.037Z,2.33
2023-03-26T04:01:23.831Z,3.35
2023-03-26T04:03:50.759Z,2.63
2023-03-26T04:06:17.581Z,2.72
2023-03-26T04:08:45.204Z,4.25
2023-03-26T04:11:13.231Z,3.22
2023-03-26T04:13:39.931Z,3.22
2023-03-26T04:16:18.054Z,4.18
2023-03-26T04:18:44.719Z,3.95
2023-03-26T04:21:11.392Z,3.50
2023-03-26T04:23:38.400Z,4.57
2023-03-26T04:26:06.407Z,4.65
2023-03-26T04:28:52.900Z,4.43
2023-03-26T04:31:21.742Z,3.38
2023-03-26T04:33:51.971Z,3.78
2023-03-26T04:36:26.669Z,3.70
2023-03-26T04:38:53.340Z,3.30
2023-03-26T04:41:20.057Z,3.45
2023-03-26T04:43:46.788Z,3.67
2023-03-26T04:46:14.242Z,3.10
2023-03-26T04:48:40.959Z,3.60
2023-03-26T04:51:07.748Z,3.20
2023-03-26T04:53:34.524Z,2.72
2023-03-26T04:56:14.278Z,3.28
2023-03-26T04:58:40.925Z,3.22
2023-03-26T05:01:10.236Z,3.30
2023-03-26T05:03:37.634Z,2.83
2023-03-26T05:06:04.648Z,3.00
2023-03-26T05:08:31.362Z,3.38
2023-03-26T05:10:58.172Z,3.30
2023-03-26T05:13:24.875Z,4.20
2023-03-26T05:15:51.562Z,3.63
2023-03-26T05:18:18.236Z,3.65
2023-03-26T05:20:44.885Z,3.10
2023-03-26T05:23:11.785Z,3.67
2023-03-26T05:25:38.755Z,3.88
2023-03-26T05:28:05.431Z,3.70
2023-03-26T05:30:32.084Z,3.60
2023-03-26T05:32:58.803Z,3.97
2023-03-26T05:35:25.527Z,2.92
2023-03-26T05:37:52.213Z,3.92
2023-03-26T05:40:19.212Z,3.65
2023-03-26T05:42:45.911Z,4.57
2023-03-26T05:45:13.452Z,2.90
2023-03-26T05:47:40.200Z,2.67
2023-03-26T05:50:07.487Z,2.80
2023-03-26T05:52:35.167Z,2.50
2023-03-26T05:55:02.103Z,3.00
2023-03-26T05:57:34.535Z,2.25
2023-03-26T06:00:02.417Z,2.58
2023-03-26T06:02:29.217Z,2.15
2023-03-26T06:04:59.243Z,2.75
2023-03-26T06:07:26.079Z,1.98
2023-03-26T06:09:52.975Z,2.30
2023-03-26T06:12:19.640Z,2.13
2023-03-26T06:14:46.476Z,1.67
2023-03-26T06:17:13.356Z,1.42
2023-03-26T06:19:40.082Z,1.73
2023-03-26T06:22:06.825Z,2.22
2023-03-26T06:24:33.622Z,1.95
2023-03-26T06:27:00.347Z,1.88
2023-03-26T06:29:27.176Z,1.73
2023-03-26T06:31:53.962Z,2.15
2023-03-26T06:34:21.041Z,2.47
2023-03-26T06:36:47.941Z,2.10
2023-03-26T06:39:16.554Z,2.50
2023-03-26T06:41:43.352Z,2.17
2023-03-26T06:44:10.031Z,1.52
2023-03-26T06:46:36.841Z,1.83
2023-03-26T06:49:03.575Z,2.20
2023-03-26T06:51:30.257Z,1.77
2023-03-26T06:53:56.921Z,1.65
2023-03-26T06:56:23.552Z,2.90
2023-03-26T06:58:50.188Z,2.42
2023-03-26T07:01:16.868Z,2.28
2023-03-26T07:03:43.598Z,2.13
2023-03-26T07:06:10.373Z,3.03
2023-03-26T07:08:37.039Z,2.63
2023-03-26T07:11:03.826Z,2.00
2023-03-26T07:13:30.478Z,2.78
2023-03-26T07:15:57.197Z,2.53
2023-03-26T07:18:23.794Z,2.70
2023-03-26T07:20:50.819Z,3.10
2023-03-26T07:23:17.769Z,3.70
2023-03-26T07:25:44.525Z,3.00
2023-03-26T07:28:29.318Z,3.53
2023-03-26T07:31:07.248Z,3.10
2023-03-26T07:33:45.669Z,2.92
2023-03-26T07:36:21.117Z,3.35
2023-03-26T07:38:51.529Z,3.22
2023-03-26T07:41:30.583Z,3.75
2023-03-26T07:44:33.642Z,3.25
2023-03-26T07:47:02.363Z,3.50
2023-03-26T07:49:29.243Z,3.45
2023-03-26T07:51:56.139Z,4.60
2023-03-26T07:54:23.113Z,4.10
2023-03-26T07:56:58.043Z,3.50
2023-03-26T07:59:34.643Z,4.30
2023-03-26T08:02:20.102Z,4.25
2023-03-26T08:04:52.960Z,3.88
2023-03-26T08:07:57.268Z,4.80
2023-03-26T08:10:28.292Z,4.80
2023-03-26T08:13:04.095Z,5.70
2023-03-26T08:15:57.235Z,5.55
2023-03-26T08:18:30.794Z,4.53
2023-03-26T08:21:18.802Z,6.53
2023-03-26T08:23:51.947Z,5.63
2023-03-26T08:26:42.517Z,6.72
2023-03-26T08:29:31.479Z,6.95
2023-03-26T08:31:58.218Z,5.68
2023-03-26T08:34:25.019Z,6.15
2023-03-26T08:36:51.681Z,5.22
2023-03-26T08:39:18.353Z,6.05
2023-03-26T08:42:00.506Z,5.80
2023-03-26T08:47:26.868Z,5.43
2023-03-26T08:50:21.440Z,5.63
2023-03-26T08:53:07.050Z,5.72
2023-03-26T08:55:33.764Z,6.30
2023-03-26T08:58:16.703Z,5.13
2023-03-26T09:01:15.320Z,6.28
2023-03-26T09:04:03.948Z,6.18
2023-03-26T09:06:42.535Z,5.50
2023-03-26T09:09:21.087Z,4.85
2023-03-26T09:12:29.252Z,4.18
2023-03-26T09:15:23.234Z,4.03
2023-03-26T09:18:14.619Z,4.50
2023-03-26T09:21:20.102Z,4.13
2023-03-26T09:24:14.306Z,4.22
2023-03-26T09:27:03.059Z,3.50
2023-03-26T09:30:02.845Z,2.88
2023-03-26T09:32:56.620Z,3.63
2023-03-26T09:35:52.246Z,2.67
2023-03-26T09:38:28.308Z,3.33
2023-03-26T09:43:42.296Z,3.38
2023-03-26T09:46:16.581Z,3.33
2023-03-26T09:48:52.310Z,2.03
2023-03-26T09:51:40.396Z,1.95
2023-03-26T09:54:37.942Z,2.03
2023-03-26T09:57:38.334Z,1.52
2023-03-26T10:00:07.893Z,1.60
2023-03-26T10:06:03.974Z,1.77
2023-03-26T10:08:33.142Z,1.40
2023-03-26T10:11:11.375Z,2.95
2023-03-26T10:14:07.009Z,2.00
2023-03-26T10:19:55.346Z,1.70
2023-03-26T10:22:30.948Z,1.35
2023-03-26T10:25:21.941Z,1.55
2023-03-26T10:27:48.881Z,1.52
2023-03-26T10:30:18.354Z,1.83
2023-03-26T10:33:37.695Z,1.33
2023-03-26T10:36:27.326Z,1.40
2023-03-26T10:39:36.836Z,1.55
2023-03-26T10:42:42.713Z,1.35
2023-03-26T10:45:30.512Z,1.00
2023-03-26T10:48:03.138Z,1.17
2023-03-26T10:51:01.696Z,1.65
2023-03-26T10:53:49.603Z,1.02
2023-03-26T10:56:28.505Z,1.00
2023-03-26T10:58:56.959Z,1.30
2023-03-26T11:01:54.831Z,1.05
2023-03-26T11:04:47.655Z,1.30
2023-03-26T11:07:55.484Z,0.80
2023-03-26T11:10:42.971Z,0.70
2023-03-26T11:13:29.433Z,1.30
2023-03-26T11:16:09.568Z,1.50
2023-03-26T11:18:48.651Z,1.50
2023-03-26T11:21:37.180Z,1.30
2023-03-26T11:24:14.513Z,1.30
2023-03-26T11:26:56.789Z,2.28
2023-03-26T11:29:54.304Z,1.25
2023-03-26T11:32:24.348Z,1.67
2023-03-26T11:35:05.602Z,1.80
2023-03-26T11:37:34.420Z,1.73
2023-03-26T11:40:02.389Z,2.03
2023-03-26T11:42:29.459Z,1.70
2023-03-26T11:45:00.625Z,1.65
2023-03-26T11:47:55.783Z,1.58
2023-03-26T11:50:25.751Z,2.47
2023-03-26T11:52:53.965Z,2.20
2023-03-26T11:55:20.637Z,1.50
2023-03-26T11:57:53.252Z,1.73
2023-03-26T12:00:21.016Z,2.00
2023-03-26T12:02:48.095Z,1.55
2023-03-26T12:05:24.263Z,1.55
2023-03-26T12:07:55.500Z,1.75
2023-03-26T12:10:33.219Z,2.03
2023-03-26T12:13:21.170Z,2.00
2023-03-26T12:15:47.828Z,1.95
2023-03-26T12:18:34.399Z,2.47
2023-03-26T12:21:05.196Z,2.30
2023-03-26T12:23:50.953Z,1.95
2023-03-26T12:26:21.410Z,1.95
2023-03-26T12:28:51.138Z,2.80
2023-03-26T12:34:04.149Z,3.03
2023-03-26T12:36:32.202Z,4.45
2023-03-26T12:39:15.958Z,5.22
2023-03-26T12:44:43.521Z,5.45
2023-03-26T12:44:56.160Z,5.97
2023-03-26T12:48:00.298Z,5.43
2023-03-26T12:50:16.733Z,5.95
2023-03-26T12:52:55.515Z,3.33
2023-03-26T12:55:42.313Z,3.20
2023-03-26T12:58:26.742Z,2.42
2023-03-26T13:01:23.859Z,3.03
2023-03-26T13:04:05.264Z,2.88
2023-03-26T13:06:59.155Z,3.42
2023-03-26T13:09:37.419Z,4.20
2023-03-26T13:12:36.593Z,3.42
2023-03-26T13:15:12.056Z,2.95
2023-03-26T13:17:47.869Z,3.47
2023-03-26T13:20:31.439Z,3.28
2023-03-26T13:23:22.632Z,3.63
2023-03-26T13:26:02.252Z,3.78
2023-03-26T13:28:43.441Z,4.38
2023-03-26T13:31:35.818Z,3.15
2023-03-26T13:34:26.724Z,4.45
2023-03-26T13:37:05.733Z,3.58
2023-03-26T13:39:56.421Z,3.72
2023-03-26T13:42:41.904Z,4.18
2023-03-26T13:45:30.057Z,4.10
2023-03-26T13:47:57.491Z,4.57
2023-03-26T13:50:35.599Z,3.88
2023-03-26T13:53:18.334Z,3.30
2023-03-26T13:55:57.160Z,3.70
2023-03-26T14:01:12.479Z,3.15
2023-03-26T14:03:48.348Z,3.50
2023-03-26T14:06:24.528Z,2.85
2023-03-26T14:08:54.982Z,2.25
2023-03-26T14:11:28.000Z,2.67
2023-03-26T14:13:56.161Z,2.75
2023-03-26T14:16:26.451Z,2.53
2023-03-26T14:19:12.070Z,2.70
2023-03-26T14:21:48.608Z,2.40
2023-03-26T14:24:18.080Z,2.92
2023-03-26T14:26:53.955Z,2.80
2023-03-26T14:32:27.782Z,3.15
2023-03-26T14:35:16.654Z,3.95
2023-03-26T14:38:02.180Z,2.63
2023-03-26T14:40:49.156Z,2.33
2023-03-26T14:43:19.743Z,3.08
2023-03-26T14:45:55.865Z,2.25
2023-03-26T14:48:34.264Z,2.97
2023-03-26T14:51:37.698Z,2.30
2023-03-26T14:54:07.870Z,1.83
2023-03-26T14:57:06.287Z,1.85
2023-03-26T14:59:51.614Z,1.73
2023-03-26T15:02:42.856Z,1.48
2023-03-26T15:05:43.427Z,1.75
2023-03-26T15:08:59.816Z,1.65
2023-03-26T15:11:48.233Z,1.58
2023-03-26T15:14:35.475Z,1.70
2023-03-26T15:17:16.838Z,1.88
2023-03-26T15:20:09.815Z,1.40
2023-03-26T15:22:58.694Z,1.70
2023-03-26T15:25:34.661Z,1.73
2023-03-26T15:31:10.491Z,1.55
2023-03-26T15:33:53.129Z,1.40
2023-03-26T15:36:24.206Z,1.58
2023-03-26T15:39:14.166Z,1.95
2023-03-26T15:42:03.489Z,1.30
2023-03-26T15:44:53.687Z,1.48
2023-03-26T15:48:05.920Z,2.33
2023-03-26T15:50:52.936Z,1.60
2023-03-26T15:53:44.035Z,1.23
2023-03-26T15:56:26.302Z,1.95
2023-03-26T15:58:58.330Z,1.80
2023-03-26T16:01:44.332Z,1.90
2023-03-26T16:04:36.266Z,1.70
2023-03-26T16:07:14.894Z,2.03
2023-03-26T16:09:53.983Z,1.30
2023-03-26T16:12:30.984Z,1.77
2023-03-26T16:15:07.679Z,1.20
2023-03-26T16:18:09.408Z,2.05
2023-03-26T16:20:50.909Z,1.50
2023-03-26T16:23:47.864Z,1.48
2023-03-26T16:26:43.151Z,1.38
2023-03-26T16:29:22.766Z,1.83
2023-03-26T16:32:11.613Z,1.80
2023-03-26T16:34:45.586Z,2.17
2023-03-26T16:37:34.255Z,1.35
2023-03-26T16:40:19.035Z,1.38
2023-03-26T16:42:49.595Z,1.88
2023-03-26T16:45:41.933Z,1.10
2023-03-26T16:48:25.889Z,2.42
2023-03-26T16:51:15.747Z,1.33
2023-03-26T16:53:48.607Z,2.38
2023-03-26T16:56:55.688Z,1.65
2023-03-26T17:00:04.956Z,1.80
2023-03-26T17:03:12.069Z,1.63
2023-03-26T17:06:01.353Z,3.63
2023-03-26T17:08:40.200Z,1.83
2023-03-26T17:11:36.740Z,2.15
2023-03-26T17:14:43.971Z,1.83
2023-03-26T17:17:49.370Z,1.42
2023-03-26T17:20:38.535Z,1.17
2023-03-26T17:23:22.281Z,1.83
2023-03-26T17:25:57.284Z,1.90
2023-03-26T17:28:54.182Z,1.67
2023-03-26T17:31:52.020Z,1.20
2023-03-26T17:34:40.764Z,1.48
2023-03-26T17:37:25.481Z,2.25
2023-03-26T17:40:01.064Z,1.50
2023-03-26T17:42:31.720Z,1.42
2023-03-26T17:45:08.063Z,1.10
2023-03-26T17:47:40.180Z,2.33
2023-03-26T17:50:08.125Z,1.90
2023-03-26T17:52:43.875Z,1.80
2023-03-26T17:55:12.654Z,1.90
2023-03-26T17:57:47.589Z,1.40
2023-03-26T18:00:16.915Z,2.35
2023-03-26T18:02:52.329Z,1.48
2023-03-26T18:05:19.688Z,1.63
2023-03-26T18:08:05.967Z,2.08
2023-03-26T18:10:52.026Z,1.83
2023-03-26T18:13:24.854Z,1.38
2023-03-26T18:16:14.619Z,1.60
2023-03-26T18:18:50.854Z,1.80
2023-03-26T18:21:40.613Z,1.45
2023-03-26T18:24:09.192Z,1.95
2023-03-26T18:26:43.569Z,2.17
2023-03-26T18:29:17.325Z,1.67
2023-03-26T18:31:44.536Z,1.52
2023-03-26T18:34:18.779Z,1.90
2023-03-26T18:37:08.857Z,1.35
2023-03-26T18:39:36.049Z,1.20
2023-03-26T18:42:03.224Z,1.08
2023-03-26T18:44:30.011Z,0.93
2023-03-26T18:46:58.712Z,1.02
2023-03-26T18:49:26.815Z,1.00
2023-03-26T18:51:57.329Z,1.15
2023-03-26T18:54:25.247Z,1.27
2023-03-26T18:56:52.348Z,1.80
2023-03-26T18:59:32.244Z,1.92
2023-03-26T19:02:00.307Z,1.30
2023-03-26T19:04:27.989Z,0.98
2023-03-26T19:06:55.256Z,1.08
2023-03-26T19:09:31.096Z,1.15
2023-03-26T19:12:15.982Z,1.27
2023-03-26T19:15:01.918Z,1.35
2023-03-26T19:17:31.428Z,1.58
2023-03-26T19:19:58.211Z,1.17
2023-03-26T19:22:24.868Z,1.30
2023-03-26T19:25:02.423Z,1.15
2023-03-26T19:27:29.178Z,1.27
2023-03-26T19:29:55.866Z,1.40
2023-03-26T19:32:30.979Z,1.30
2023-03-26T19:34:58.943Z,1.27
2023-03-26T19:37:27.339Z,1.30
2023-03-26T19:39:55.078Z,1.27
2023-03-26T19:42:25.887Z,1.33
2023-03-26T19:44:54.140Z,1.20
2023-03-26T19:47:46.396Z,1.55
2023-03-26T19:50:27.068Z,1.20
2023-03-26T19:53:18.813Z,1.85
2023-03-26T19:55:57.786Z,1.63
2023-03-26T19:58:26.099Z,1.42
2023-03-26T20:00:53.081Z,1.00
2023-03-26T20:03:31.517Z,0.90
2023-03-26T20:06:23.647Z,1.25
2023-03-26T20:08:54.877Z,2.15
2023-03-26T20:11:27.036Z,2.35
2023-03-26T20:13:53.903Z,1.48
2023-03-26T20:16:27.207Z,1.20
2023-03-26T20:18:53.978Z,1.90
2023-03-26T20:21:21.465Z,1.30
2023-03-26T20:23:48.187Z,1.77
2023-03-26T20:26:15.812Z,1.08
2023-03-26T20:28:48.248Z,1.27
2023-03-26T20:31:23.815Z,1.38
2023-03-26T20:33:50.910Z,2.03
2023-03-26T20:36:32.635Z,2.45
2023-03-26T20:39:05.057Z,1.75
2023-03-26T20:41:31.871Z,2.08
2023-03-26T20:43:58.665Z,1.63
2023-03-26T20:46:30.860Z,1.10
2023-03-26T20:48:58.922Z,1.23
2023-03-26T20:51:25.761Z,1.42
2023-03-26T20:53:52.413Z,1.55
2023-03-26T20:56:19.377Z,1.95
2023-03-26T20:58:47.894Z,1.30
2023-03-26T21:01:15.888Z,1.90
2023-03-26T21:03:42.624Z,1.30
2023-03-26T21:06:11.279Z,2.78
2023-03-26T21:08:38.367Z,1.75
2023-03-26T21:11:10.202Z,1.25
2023-03-26T21:13:45.042Z,2.40
2023-03-26T21:16:12.262Z,1.20
2023-03-26T21:18:39.582Z,1.00
2023-03-26T21:21:24.392Z,1.30
2023-03-26T21:24:20.914Z,1.63
2023-03-26T21:27:01.740Z,0.68
2023-03-26T21:29:28.665Z,1.33
2023-03-26T21:31:55.581Z,1.50
2023-03-26T21:34:22.779Z,1.25
2023-03-26T21:36:49.784Z,1.30
2023-03-26T21:39:16.755Z,1.63
2023-03-26T21:41:45.597Z,0.95
2023-03-26T21:44:12.303Z,0.90
2023-03-26T21:46:41.669Z,1.00
2023-03-26T21:49:08.647Z,1.35
2023-03-26T21:51:35.633Z,1.10
2023-03-26T21:54:02.474Z,1.00
2023-03-26T21:57:04.196Z,0.98
2023-03-26T21:59:53.619Z,1.17
2023-03-26T22:02:23.571Z,1.55
2023-03-26T22:05:15.812Z,1.23
2023-03-26T22:07:52.922Z,1.95
2023-03-26T22:10:20.209Z,1.52
2023-03-26T22:12:46.860Z,1.50
2023-03-26T22:15:13.661Z,1.08
2023-03-26T22:17:43.129Z,2.25
2023-03-26T22:20:11.408Z,1.17
2023-03-26T22:22:38.766Z,1.20
2023-03-26T22:25:05.502Z,1.13
2023-03-26T22:27:32.134Z,1.00
2023-03-26T22:30:11.035Z,1.23
2023-03-26T22:32:37.717Z,1.50
2023-03-26T22:35:04.867Z,1.10
2023-03-26T22:37:31.566Z,1.02
2023-03-26T22:39:58.210Z,1.02
2023-03-26T22:42:24.904Z,1.60
2023-03-26T22:44:51.634Z,1.80
2023-03-26T22:47:18.365Z,1.25
2023-03-26T22:49:45.063Z,1.40
2023-03-26T22:52:12.727Z,1.42
2023-03-26T22:54:39.470Z,1.20
2023-03-26T22:57:06.292Z,1.25
2023-03-26T22:59:33.022Z,0.93
2023-03-26T23:01:59.680Z,1.23
2023-03-26T23:04:31.502Z,1.02
2023-03-26T23:06:59.106Z,1.30
2023-03-26T23:09:25.789Z,1.13
2023-03-26T23:11:52.450Z,1.20
2023-03-26T23:14:19.943Z,1.23
2023-03-26T23:16:46.653Z,1.65
2023-03-26T23:19:13.430Z,2.13
2023-03-26T23:21:40.129Z,1.00
2023-03-26T23:24:06.925Z,1.02
2023-03-26T23:26:43.908Z,1.05
2023-03-26T23:29:16.658Z,1.52
2023-03-26T23:31:43.441Z,1.05
2023-03-26T23:34:10.109Z,0.70
2023-03-26T23:36:36.855Z,0.85
2023-03-26T23:39:03.687Z,1.92
2023-03-26T23:41:30.368Z,1.15
2023-03-26T23:43:57.029Z,0.82
2023-03-26T23:46:24.919Z,0.82
2023-03-26T23:48:52.183Z,0.70
2023-03-26T23:51:19.506Z,1.10
2023-03-26T23:53:46.549Z,1.30
2023-03-26T23:56:13.242Z,1.15
2023-03-26T23:58:40.146Z,0.90
